Time;durP1;ratioP1;P1;durP2;ratioP2;P2;SDS_P1;SDS_P2;PMS_P1;PMS_P2;Temp;Humidity;BMP_temperature;BMP_pressure;BME280_temperature;BME280_humidity;BME280_pressure;Samples;Min_cycle;Max_cycle;Signal;HPM_P1;HPM_P2
2023/08/27 00:01:00;;;;;;;9.57;5.80;;;16.00;84.20;;;;;;4948938;28;20041;-78
2023/08/27 00:03:26;;;;;;;11.25;5.72;;;16.00;84.20;;;;;;4960002;28;20031;-79
2023/08/27 00:05:52;;;;;;;10.25;5.85;;;16.00;84.20;;;;;;4969354;28;20035;-78
2023/08/27 00:08:17;;;;;;;9.98;5.55;;;16.00;84.30;;;;;;4953682;28;20043;-78
2023/08/27 00:10:43;;;;;;;10.13;6.10;;;16.00;84.40;;;;;;4964958;28;20022;-78
2023/08/27 00:13:09;;;;;;;9.40;5.82;;;16.00;84.40;;;;;;4957553;28;20038;-79
2023/08/27 00:15:35;;;;;;;8.80;5.22;;;16.00;84.90;;;;;;4967637;28;20031;-78
2023/08/27 00:18:01;;;;;;;12.32;5.88;;;16.10;85.00;;;;;;4951857;28;20050;-78
2023/08/27 00:20:27;;;;;;;9.68;5.25;;;16.10;85.30;;;;;;4948920;28;20434;-78
2023/08/27 00:22:52;;;;;;;10.55;6.07;;;16.00;85.40;;;;;;4953393;28;20106;-78
2023/08/27 00:25:18;;;;;;;10.18;5.82;;;16.10;85.70;;;;;;4945968;28;20359;-78
2023/08/27 00:27:44;;;;;;;11.48;5.80;;;16.10;85.60;;;;;;4944847;28;20043;-78
2023/08/27 00:30:10;;;;;;;10.55;5.90;;;16.10;85.80;;;;;;4946245;28;20053;-78
2023/08/27 00:32:36;;;;;;;10.45;5.30;;;16.10;85.70;;;;;;4942033;28;20044;-78
2023/08/27 00:35:03;;;;;;;10.13;5.85;;;16.10;85.90;;;;;;4950881;28;20076;-78
2023/08/27 00:37:29;;;;;;;9.15;5.75;;;16.10;86.00;;;;;;4955490;28;20387;-78
2023/08/27 00:39:55;;;;;;;9.80;5.57;;;16.00;86.30;;;;;;4962971;28;20481;-78
2023/08/27 00:42:21;;;;;;;12.85;6.22;;;16.00;86.40;;;;;;4954360;28;20115;-78
2023/08/27 00:44:47;;;;;;;10.45;6.05;;;16.10;86.50;;;;;;4946716;28;20031;-78
2023/08/27 00:47:15;;;;;;;10.45;5.78;;;16.10;86.40;;;;;;4959307;28;20063;-78
2023/08/27 00:49:42;;;;;;;9.68;5.38;;;16.10;86.20;;;;;;4967038;28;20112;-78
2023/08/27 00:52:09;;;;;;;10.65;6.10;;;16.00;86.40;;;;;;4959938;28;20402;-78
2023/08/27 00:54:35;;;;;;;9.38;6.13;;;16.00;86.50;;;;;;4954847;28;20035;-77
2023/08/27 00:57:05;;;;;;;13.88;5.68;;;15.90;86.50;;;;;;4985792;28;20364;-78
2023/08/27 00:59:31;;;;;;;10.15;6.03;;;15.90;86.60;;;;;;4957701;28;20470;-78
2023/08/27 01:01:57;;;;;;;10.80;6.18;;;15.90;86.60;;;;;;4947231;28;20043;-78
2023/08/27 01:04:22;;;;;;;9.75;5.70;;;15.80;86.60;;;;;;5036150;28;20146;-78
2023/08/27 01:06:49;;;;;;;10.85;5.50;;;15.80;86.70;;;;;;4942601;28;20027;-78
2023/08/27 01:09:42;;;;;;;12.25;6.30;;;15.90;86.80;;;;;;4945003;28;20062;-78
2023/08/27 01:12:35;;;;;;;10.27;5.60;;;15.90;86.70;;;;;;4955232;28;20112;-78
2023/08/27 01:15:02;;;;;;;10.20;5.95;;;15.90;86.70;;;;;;4948664;28;20388;-78
2023/08/27 01:17:29;;;;;;;10.68;6.38;;;15.80;86.80;;;;;;4956513;28;20153;-77
2023/08/27 01:19:56;;;;;;;7.82;5.25;;;15.90;86.70;;;;;;4972773;28;20098;-78
2023/08/27 01:22:21;;;;;;;8.93;5.68;;;15.80;86.80;;;;;;4968664;28;20031;-78
2023/08/27 01:24:47;;;;;;;11.52;6.50;;;15.90;86.80;;;;;;4972823;28;20033;-77
2023/08/27 01:27:32;;;;;;;9.38;6.18;;;15.80;86.70;;;;;;4962613;28;20043;-78
2023/08/27 01:30:27;;;;;;;9.10;5.57;;;15.80;86.90;;;;;;4942922;28;20036;-78
2023/08/27 01:33:05;;;;;;;9.88;5.97;;;15.70;87.00;;;;;;4948079;28;20051;-78
2023/08/27 01:35:31;;;;;;;9.25;5.68;;;15.70;87.10;;;;;;5000130;28;20026;-76
2023/08/27 01:37:57;;;;;;;10.80;6.25;;;15.70;87.20;;;;;;4963205;28;20038;-78
2023/08/27 01:40:25;;;;;;;9.90;6.35;;;15.70;87.20;;;;;;4941545;28;20031;-78
2023/08/27 01:42:50;;;;;;;13.05;6.18;;;15.70;87.30;;;;;;4949089;28;20499;-78
2023/08/27 01:45:17;;;;;;;10.15;6.30;;;15.70;87.30;;;;;;4948196;28;20107;-77
2023/08/27 01:47:43;;;;;;;10.25;6.32;;;15.70;87.40;;;;;;4950199;28;20046;-78
2023/08/27 01:50:09;;;;;;;12.15;6.25;;;15.70;87.50;;;;;;4962822;28;20115;-77
2023/08/27 01:52:35;;;;;;;10.88;5.97;;;15.70;87.40;;;;;;4958864;28;20416;-77
2023/08/27 01:55:03;;;;;;;9.05;6.20;;;15.60;87.50;;;;;;4948599;28;20020;-77
2023/08/27 01:57:28;;;;;;;9.00;6.13;;;15.60;87.50;;;;;;4948945;28;20043;-76
2023/08/27 01:59:54;;;;;;;9.43;6.10;;;15.60;87.70;;;;;;4952176;28;20023;-76
2023/08/27 02:02:20;;;;;;;9.25;6.13;;;15.60;87.70;;;;;;4948780;28;20050;-76
2023/08/27 02:04:46;;;;;;;10.25;7.38;;;15.60;87.80;;;;;;4967616;28;20039;-77
2023/08/27 02:07:11;;;;;;;11.38;6.55;;;15.60;87.80;;;;;;4962593;28;20040;-77
2023/08/27 02:09:37;;;;;;;9.25;6.85;;;15.60;88.10;;;;;;4948842;28;20477;-76
2023/08/27 02:12:04;;;;;;;11.55;6.63;;;15.60;88.00;;;;;;4948457;28;20043;-77
2023/08/27 02:14:30;;;;;;;9.43;6.07;;;15.60;87.90;;;;;;4947460;28;20101;-77
2023/08/27 02:16:55;;;;;;;11.45;7.03;;;15.60;88.00;;;;;;5051047;28;20046;-77
2023/08/27 02:19:21;;;;;;;9.93;6.70;;;15.60;88.20;;;;;;4947000;28;20394;-76
2023/08/27 02:21:47;;;;;;;14.40;6.43;;;15.60;88.10;;;;;;4943044;28;20111;-75
2023/08/27 02:24:13;;;;;;;9.57;6.55;;;15.60;88.10;;;;;;4936192;28;20146;-77
2023/08/27 02:26:39;;;;;;;11.68;7.25;;;15.60;88.10;;;;;;4936796;28;20977;-76
2023/08/27 02:29:05;;;;;;;11.43;7.00;;;15.60;88.10;;;;;;4940976;28;20047;-76
2023/08/27 02:31:30;;;;;;;11.07;6.80;;;15.60;88.20;;;;;;4950903;28;20473;-77
2023/08/27 02:33:56;;;;;;;10.43;6.30;;;15.60;88.20;;;;;;4941595;28;20078;-76
2023/08/27 02:36:22;;;;;;;11.25;7.13;;;15.60;88.20;;;;;;4948506;28;20110;-77
2023/08/27 02:38:47;;;;;;;10.32;7.25;;;15.60;88.20;;;;;;4954735;28;20130;-75
2023/08/27 02:41:13;;;;;;;12.05;6.68;;;15.60;88.10;;;;;;4964071;28;20453;-75
2023/08/27 02:43:39;;;;;;;11.02;6.88;;;15.60;88.20;;;;;;4968098;28;20046;-78
2023/08/27 02:46:06;;;;;;;10.90;7.30;;;15.60;88.10;;;;;;4976887;28;20033;-77
2023/08/27 02:48:32;;;;;;;11.50;7.63;;;15.60;88.10;;;;;;4964876;28;20054;-78
2023/08/27 02:50:58;;;;;;;10.57;6.95;;;15.60;88.10;;;;;;4963831;28;20032;-78
2023/08/27 02:53:23;;;;;;;12.65;7.50;;;15.50;88.00;;;;;;4967159;28;20043;-78
2023/08/27 02:55:49;;;;;;;11.63;7.35;;;15.50;88.20;;;;;;4956868;28;20102;-78
2023/08/27 02:58:14;;;;;;;9.65;7.40;;;15.50;88.30;;;;;;4952210;28;20031;-78
2023/08/27 03:00:40;;;;;;;10.60;7.28;;;15.50;88.30;;;;;;4952319;28;20036;-77
2023/08/27 03:03:07;;;;;;;12.32;7.57;;;15.50;88.40;;;;;;4944349;28;20548;-77
2023/08/27 03:05:33;;;;;;;10.07;7.47;;;15.40;88.40;;;;;;4964451;28;20038;-76
2023/08/27 03:07:59;;;;;;;11.45;7.35;;;15.40;88.50;;;;;;4961472;28;20473;-77
2023/08/27 03:10:24;;;;;;;10.18;7.72;;;15.30;88.70;;;;;;4964813;28;20101;-77
2023/08/27 03:12:50;;;;;;;10.70;7.80;;;15.30;88.70;;;;;;4968765;28;20133;-76
2023/08/27 03:15:16;;;;;;;10.40;7.30;;;15.30;88.80;;;;;;4960124;28;20034;-77
2023/08/27 03:17:42;;;;;;;13.93;8.63;;;15.20;88.80;;;;;;4980628;28;20045;-76
2023/08/27 03:20:08;;;;;;;12.82;7.72;;;15.20;88.90;;;;;;4970878;28;20031;-77
2023/08/27 03:22:34;;;;;;;11.23;7.53;;;15.10;89.00;;;;;;5011342;28;20039;-76
2023/08/27 03:25:01;;;;;;;11.68;8.25;;;15.10;89.20;;;;;;4965059;28;20101;-76
2023/08/27 03:27:27;;;;;;;10.15;6.90;;;15.10;89.10;;;;;;4960916;28;20057;-77
2023/08/27 03:29:53;;;;;;;12.00;7.80;;;15.00;89.20;;;;;;4944159;28;20035;-76
2023/08/27 03:32:18;;;;;;;11.18;7.85;;;15.00;89.40;;;;;;4948903;28;20035;-77
2023/08/27 03:34:44;;;;;;;12.77;7.72;;;15.00;89.40;;;;;;4967591;28;20027;-77
2023/08/27 03:37:10;;;;;;;14.65;8.38;;;15.00;89.50;;;;;;4961775;28;20065;-77
2023/08/27 03:39:35;;;;;;;12.68;8.50;;;14.90;89.60;;;;;;4946624;28;20066;-77
2023/08/27 03:42:01;;;;;;;11.30;7.22;;;14.90;89.60;;;;;;4955173;28;20047;-77
2023/08/27 03:44:27;;;;;;;12.00;7.63;;;14.80;89.60;;;;;;4956426;28;20026;-78
2023/08/27 03:46:52;;;;;;;10.23;7.43;;;14.80;89.70;;;;;;4958994;28;20031;-77
2023/08/27 03:49:18;;;;;;;14.30;7.72;;;14.80;89.80;;;;;;4994501;28;20029;-77
2023/08/27 03:51:44;;;;;;;10.38;7.30;;;14.80;89.70;;;;;;4977118;28;20058;-77
2023/08/27 03:54:09;;;;;;;14.45;7.78;;;14.80;89.80;;;;;;4957970;28;20464;-77
2023/08/27 03:56:35;;;;;;;12.13;7.82;;;14.80;89.70;;;;;;4951935;28;20521;-78
2023/08/27 03:59:01;;;;;;;12.65;7.53;;;14.80;89.80;;;;;;4960737;28;20130;-78
2023/08/27 04:01:26;;;;;;;12.70;7.22;;;14.70;89.80;;;;;;4964647;28;20086;-78
2023/08/27 04:03:53;;;;;;;11.88;7.30;;;14.70;89.90;;;;;;4957062;28;20492;-78
2023/08/27 04:06:19;;;;;;;10.40;6.93;;;14.60;90.00;;;;;;4962847;28;20024;-78
2023/08/27 04:08:44;;;;;;;12.60;7.85;;;14.60;90.20;;;;;;4949388;28;20047;-78
2023/08/27 04:11:13;;;;;;;14.13;8.63;;;14.60;90.10;;;;;;4947670;28;20046;-78
2023/08/27 04:13:39;;;;;;;12.95;7.82;;;14.60;90.10;;;;;;4940654;28;20043;-76
2023/08/27 04:16:06;;;;;;;14.00;8.60;;;14.60;90.20;;;;;;4944983;28;20330;-79
2023/08/27 04:18:35;;;;;;;9.85;7.60;;;14.50;90.20;;;;;;4988345;28;20059;-78
2023/08/27 04:21:01;;;;;;;13.40;8.38;;;14.60;90.30;;;;;;4966111;28;20027;-78
2023/08/27 04:23:27;;;;;;;12.82;8.82;;;14.50;90.50;;;;;;4961090;28;20031;-78
2023/08/27 04:25:53;;;;;;;13.00;7.97;;;14.50;90.50;;;;;;4958249;28;20030;-78
2023/08/27 04:28:19;;;;;;;19.30;7.93;;;14.50;90.60;;;;;;4971045;28;20051;-78
2023/08/27 04:30:49;;;;;;;11.63;8.73;;;14.50;90.60;;;;;;4968608;28;20023;-78
2023/08/27 04:33:16;;;;;;;11.57;7.88;;;14.50;90.50;;;;;;4972032;28;20066;-76
2023/08/27 04:35:44;;;;;;;14.15;7.50;;;14.50;90.50;;;;;;4972315;28;20117;-77
2023/08/27 04:38:10;;;;;;;12.30;7.82;;;14.50;90.50;;;;;;4966281;28;20034;-77
2023/08/27 04:40:36;;;;;;;13.32;7.97;;;14.50;90.50;;;;;;4970622;28;20033;-77
2023/08/27 04:43:02;;;;;;;12.30;7.15;;;14.40;90.50;;;;;;4992443;28;20029;-78
2023/08/27 04:45:28;;;;;;;13.88;7.65;;;14.40;90.60;;;;;;4969053;28;20027;-77
2023/08/27 04:47:54;;;;;;;12.68;8.20;;;14.40;90.50;;;;;;4967350;28;20117;-77
2023/08/27 04:50:20;;;;;;;14.35;8.40;;;14.40;90.60;;;;;;4967394;28;20174;-78
2023/08/27 04:52:46;;;;;;;13.18;9.23;;;14.40;90.50;;;;;;4993619;28;20112;-77
2023/08/27 04:55:12;;;;;;;14.30;8.40;;;14.40;90.60;;;;;;4966634;28;20424;-77
2023/08/27 04:57:38;;;;;;;14.38;7.63;;;14.40;90.60;;;;;;4963211;28;20039;-77
2023/08/27 05:00:08;;;;;;;12.77;7.55;;;14.40;90.50;;;;;;4976250;28;20373;-77
2023/08/27 05:02:35;;;;;;;12.38;7.18;;;14.40;90.50;;;;;;4990770;28;20060;-77
2023/08/27 05:05:01;;;;;;;14.10;7.53;;;14.40;90.40;;;;;;4971083;28;20062;-77
2023/08/27 05:07:28;;;;;;;11.63;7.65;;;14.40;90.50;;;;;;4956635;28;20040;-77
2023/08/27 05:09:53;;;;;;;12.02;7.97;;;14.40;90.40;;;;;;4954066;28;20033;-77
2023/08/27 05:12:19;;;;;;;14.02;7.68;;;14.30;90.50;;;;;;4946297;28;20052;-78
2023/08/27 05:14:45;;;;;;;13.63;7.18;;;14.40;90.40;;;;;;4980692;28;20044;-78
2023/08/27 05:17:11;;;;;;;14.60;7.25;;;14.40;90.40;;;;;;4969499;28;20034;-77
2023/08/27 05:19:37;;;;;;;10.65;7.03;;;14.40;90.30;;;;;;4970534;28;20049;-77
2023/08/27 05:22:03;;;;;;;11.48;7.22;;;14.50;90.30;;;;;;4991004;28;20061;-77
2023/08/27 05:24:29;;;;;;;13.63;6.88;;;14.50;90.20;;;;;;4964942;28;20611;-77
2023/08/27 05:26:55;;;;;;;10.65;6.75;;;14.50;90.20;;;;;;4967682;28;20438;-77
2023/08/27 05:29:20;;;;;;;10.38;6.70;;;14.50;90.10;;;;;;4953075;28;20050;-77
2023/08/27 05:31:46;;;;;;;12.23;7.00;;;14.50;90.00;;;;;;4949866;28;20046;-78
2023/08/27 05:34:12;;;;;;;13.20;7.10;;;14.60;89.90;;;;;;4960016;28;20039;-77
2023/08/27 05:36:38;;;;;;;9.13;6.38;;;14.60;89.70;;;;;;4948119;28;20045;-77
2023/08/27 05:39:05;;;;;;;12.00;6.38;;;14.70;89.50;;;;;;4960399;28;20092;-78
2023/08/27 05:41:31;;;;;;;11.32;6.13;;;14.70;89.30;;;;;;5009438;28;20546;-77
2023/08/27 05:43:57;;;;;;;11.27;6.97;;;14.80;89.30;;;;;;4943836;28;20438;-77
2023/08/27 05:46:23;;;;;;;12.48;7.28;;;14.70;88.90;;;;;;4944651;29;20034;-77
2023/08/27 05:48:49;;;;;;;9.82;6.30;;;14.80;89.00;;;;;;4945131;28;20452;-77
2023/08/27 05:51:14;;;;;;;9.70;6.63;;;14.80;89.00;;;;;;4950873;28;20517;-77
2023/08/27 05:53:40;;;;;;;9.57;5.90;;;14.80;88.80;;;;;;4957116;28;20047;-78
2023/08/27 05:56:06;;;;;;;11.57;6.30;;;14.90;88.50;;;;;;5011482;28;20545;-77
2023/08/27 05:58:31;;;;;;;10.32;6.07;;;14.90;88.70;;;;;;4962826;28;20214;-77
2023/08/27 06:00:57;;;;;;;10.20;6.20;;;14.80;88.50;;;;;;4948426;28;20388;-77
2023/08/27 06:03:23;;;;;;;8.63;5.70;;;14.90;88.60;;;;;;4946297;28;20039;-77
2023/08/27 06:05:49;;;;;;;10.18;6.22;;;15.00;88.50;;;;;;4967610;28;20027;-77
2023/08/27 06:08:15;;;;;;;10.43;6.15;;;15.00;88.30;;;;;;4953375;28;20401;-77
2023/08/27 06:10:40;;;;;;;12.95;6.55;;;15.00;88.20;;;;;;4947602;28;20031;-78
2023/08/27 06:13:07;;;;;;;10.57;5.90;;;15.10;88.30;;;;;;4941456;28;20360;-77
2023/08/27 06:15:37;;;;;;;11.32;6.20;;;15.10;88.00;;;;;;4950490;28;20533;-77
2023/08/27 06:18:04;;;;;;;11.68;6.03;;;15.10;88.00;;;;;;4951310;28;20417;-77
2023/08/27 06:20:30;;;;;;;10.52;5.60;;;15.20;88.00;;;;;;4950383;28;20027;-77
2023/08/27 06:22:57;;;;;;;11.02;5.72;;;15.30;87.50;;;;;;4963307;28;20031;-78
2023/08/27 06:25:23;;;;;;;11.70;5.55;;;15.30;87.60;;;;;;4956693;28;20046;-77
2023/08/27 06:27:50;;;;;;;12.48;6.00;;;15.40;87.10;;;;;;4960282;28;20512;-77
2023/08/27 06:30:16;;;;;;;11.60;6.10;;;15.50;87.20;;;;;;4945003;28;20514;-77
2023/08/27 06:32:41;;;;;;;9.40;5.57;;;15.60;87.00;;;;;;4955560;28;20151;-78
2023/08/27 06:35:09;;;;;;;9.98;5.38;;;15.60;86.80;;;;;;4950271;28;20106;-78
2023/08/27 06:37:35;;;;;;;11.88;6.07;;;15.60;86.60;;;;;;4966241;28;20047;-78
2023/08/27 06:40:00;;;;;;;10.85;5.60;;;15.80;86.60;;;;;;4943697;28;20031;-78
2023/08/27 06:42:26;;;;;;;9.80;4.95;;;15.80;86.10;;;;;;4941146;28;20047;-78
2023/08/27 06:44:51;;;;;;;10.88;5.35;;;15.80;85.90;;;;;;4958302;28;20019;-78
2023/08/27 06:47:17;;;;;;;8.40;5.15;;;15.90;85.60;;;;;;4946626;28;20474;-78
2023/08/27 06:49:43;;;;;;;12.82;5.35;;;15.90;85.30;;;;;;4955954;28;20039;-78
2023/08/27 06:52:09;;;;;;;12.43;5.68;;;16.00;85.20;;;;;;4961379;28;20049;-78
2023/08/27 06:54:35;;;;;;;11.00;5.70;;;16.00;85.10;;;;;;4949091;28;20481;-77
2023/08/27 06:57:01;;;;;;;11.57;5.30;;;16.10;85.30;;;;;;4948975;28;20130;-77
2023/08/27 06:59:26;;;;;;;9.82;5.20;;;16.10;85.10;;;;;;4947031;28;20041;-78
2023/08/27 07:01:52;;;;;;;9.73;5.30;;;16.30;84.90;;;;;;4947875;28;20088;-79
2023/08/27 07:04:18;;;;;;;9.52;4.55;;;16.40;84.30;;;;;;4970334;28;20035;-78
2023/08/27 07:06:43;;;;;;;10.68;4.93;;;16.60;83.80;;;;;;4966292;28;20484;-78
2023/08/27 07:09:09;;;;;;;8.73;4.38;;;16.70;83.30;;;;;;4960010;28;20038;-78
2023/08/27 07:11:35;;;;;;;11.25;4.47;;;16.80;82.80;;;;;;4967929;28;20038;-78
2023/08/27 07:14:01;;;;;;;10.93;4.88;;;16.80;82.50;;;;;;4952501;28;20852;-79
2023/08/27 07:16:26;;;;;;;9.90;4.82;;;16.90;82.50;;;;;;4948293;28;20508;-79
2023/08/27 07:18:55;;;;;;;9.25;4.38;;;17.00;81.70;;;;;;4963118;28;20495;-79
2023/08/27 07:21:20;;;;;;;10.30;3.92;;;17.10;81.90;;;;;;4958664;28;20023;-79
2023/08/27 07:23:46;;;;;;;11.32;4.30;;;17.40;81.60;;;;;;4947311;28;20035;-79
2023/08/27 07:26:12;;;;;;;10.02;4.20;;;17.60;80.20;;;;;;4948328;28;20536;-79
2023/08/27 07:28:38;;;;;;;10.43;4.32;;;17.70;80.10;;;;;;4956126;28;20473;-79
2023/08/27 07:31:04;;;;;;;8.63;4.20;;;17.80;79.50;;;;;;4953845;28;20114;-79
2023/08/27 07:33:30;;;;;;;10.65;4.25;;;17.80;78.80;;;;;;4949210;28;20062;-78
2023/08/27 07:35:56;;;;;;;9.43;4.10;;;17.80;78.90;;;;;;4940767;28;20023;-78
2023/08/27 07:38:25;;;;;;;8.43;3.92;;;17.90;78.30;;;;;;4940706;28;20040;-78
2023/08/27 07:40:51;;;;;;;9.00;3.95;;;18.00;78.30;;;;;;4946163;28;20024;-78
2023/08/27 07:43:17;;;;;;;7.35;3.78;;;18.20;78.10;;;;;;4954447;28;20461;-79
2023/08/27 07:45:43;;;;;;;9.95;3.95;;;18.40;77.90;;;;;;4972107;28;20034;-78
2023/08/27 07:48:08;;;;;;;9.20;3.95;;;18.50;76.10;;;;;;4969946;28;20067;-77
2023/08/27 07:50:34;;;;;;;8.25;3.28;;;18.60;76.20;;;;;;4966508;28;20034;-78
2023/08/27 07:53:00;;;;;;;9.85;3.58;;;18.80;75.10;;;;;;4967713;28;20047;-79
2023/08/27 07:55:31;;;;;;;7.88;3.95;;;18.90;75.60;;;;;;4982752;28;20067;-79
2023/08/27 07:57:57;;;;;;;12.13;3.55;;;19.10;74.00;;;;;;4964096;28;20122;-78
2023/08/27 08:00:22;;;;;;;7.50;3.47;;;19.20;74.00;;;;;;4967999;28;20038;-79
2023/08/27 08:02:48;;;;;;;8.73;2.60;;;19.40;74.20;;;;;;4966265;28;20557;-78
2023/08/27 08:05:14;;;;;;;5.88;2.45;;;19.40;72.70;;;;;;4967205;28;20026;-78
2023/08/27 08:07:41;;;;;;;8.38;2.92;;;19.40;72.90;;;;;;4957627;28;20028;-78
2023/08/27 08:10:07;;;;;;;7.57;2.80;;;19.10;72.70;;;;;;4949949;28;20023;-78
2023/08/27 08:12:32;;;;;;;6.60;2.25;;;18.90;73.10;;;;;;4951068;28;20043;-78
2023/08/27 08:14:58;;;;;;;8.50;2.70;;;18.90;73.70;;;;;;4967258;28;20031;-77
2023/08/27 08:17:24;;;;;;;5.53;2.47;;;18.70;74.40;;;;;;4957486;28;20084;-78
2023/08/27 08:19:51;;;;;;;6.88;2.70;;;18.60;73.90;;;;;;4963164;28;20031;-78
2023/08/27 08:22:17;;;;;;;6.38;2.55;;;18.80;73.90;;;;;;4993173;28;20083;-79
2023/08/27 08:24:43;;;;;;;7.53;2.65;;;18.80;73.50;;;;;;4950646;28;20051;-79
2023/08/27 08:27:09;;;;;;;8.02;3.10;;;19.10;73.40;;;;;;4947366;28;20667;-79
2023/08/27 08:29:34;;;;;;;5.65;2.83;;;19.20;73.10;;;;;;4943217;28;20052;-79
2023/08/27 08:32:00;;;;;;;7.95;3.00;;;19.10;72.50;;;;;;4951127;28;20078;-78
2023/08/27 08:34:29;;;;;;;5.90;2.80;;;18.90;73.60;;;;;;4943014;28;20050;-78
2023/08/27 08:36:55;;;;;;;5.70;2.33;;;18.90;72.90;;;;;;4945952;28;20107;-77
2023/08/27 08:39:23;;;;;;;6.15;2.70;;;19.20;72.20;;;;;;4966002;28;20035;-77
2023/08/27 08:42:02;;;;;;;5.70;2.63;;;19.60;70.50;;;;;;4934310;28;20023;-77
2023/08/27 08:44:38;;;;;;;7.85;2.70;;;19.80;70.20;;;;;;4940463;28;20051;-77
2023/08/27 08:47:06;;;;;;;5.65;2.60;;;20.10;68.70;;;;;;4946849;28;20156;-78
2023/08/27 08:49:33;;;;;;;5.43;2.53;;;20.30;68.30;;;;;;4965374;28;20030;-77
2023/08/27 08:52:04;;;;;;;8.57;3.00;;;19.60;69.70;;;;;;4954228;28;20557;-78
2023/08/27 08:54:29;;;;;;;7.82;2.90;;;19.60;70.40;;;;;;4954133;28;20043;-77
2023/08/27 08:57:00;;;;;;;4.90;2.40;;;19.60;70.50;;;;;;4962140;28;20035;-78
2023/08/27 08:59:28;;;;;;;6.00;2.65;;;19.30;71.50;;;;;;4956653;28;20042;-79
2023/08/27 09:01:54;;;;;;;6.70;3.30;;;19.40;72.50;;;;;;4957471;28;20035;-79
2023/08/27 09:04:22;;;;;;;6.30;2.58;;;19.60;70.30;;;;;;4963960;28;20038;-78
2023/08/27 09:06:49;;;;;;;6.07;2.45;;;19.70;69.70;;;;;;4962223;28;20068;-78
2023/08/27 09:09:16;;;;;;;5.25;2.35;;;19.70;69.30;;;;;;4959078;28;20465;-78
2023/08/27 09:11:43;;;;;;;6.82;3.03;;;19.90;69.70;;;;;;4953565;28;20137;-78
2023/08/27 09:14:10;;;;;;;7.65;2.75;;;19.70;70.20;;;;;;4967795;28;20044;-78
2023/08/27 09:16:35;;;;;;;6.63;2.58;;;20.10;69.60;;;;;;4972569;28;20023;-78
2023/08/27 09:19:01;;;;;;;5.68;2.40;;;20.40;69.00;;;;;;4982301;28;20039;-79
2023/08/27 09:21:27;;;;;;;9.10;2.30;;;20.80;66.50;;;;;;4989742;28;20478;-78
2023/08/27 09:23:54;;;;;;;6.65;2.50;;;21.10;65.70;;;;;;4966004;28;20066;-79
2023/08/27 09:26:20;;;;;;;5.97;2.47;;;21.10;64.90;;;;;;4963302;28;20055;-78
2023/08/27 09:28:47;;;;;;;6.03;2.65;;;21.20;64.90;;;;;;4973945;28;20030;-79
2023/08/27 09:31:32;;;;;;;7.22;2.35;;;21.20;63.90;;;;;;4969296;28;20057;-79
2023/08/27 09:33:58;;;;;;;6.60;2.42;;;21.10;65.40;;;;;;4945675;28;20499;-78
2023/08/27 09:36:25;;;;;;;5.00;2.13;;;21.00;64.50;;;;;;4947880;28;20039;-78
2023/08/27 09:38:51;;;;;;;4.30;2.20;;;20.90;64.10;;;;;;4947983;28;20043;-78
2023/08/27 09:41:17;;;;;;;6.13;2.13;;;20.90;64.20;;;;;;4946152;28;20422;-79
2023/08/27 09:43:53;;;;;;;8.95;2.58;;;21.00;64.50;;;;;;4947495;28;20122;-78
2023/08/27 09:46:19;;;;;;;5.03;1.80;;;21.10;66.00;;;;;;4951643;28;20571;-78
2023/08/27 09:49:00;;;;;;;6.00;2.35;;;21.00;63.50;;;;;;4974605;28;20397;-78
2023/08/27 09:51:28;;;;;;;3.67;1.70;;;20.70;63.50;;;;;;5047394;28;20374;-78
2023/08/27 09:53:55;;;;;;;6.03;1.95;;;20.60;64.60;;;;;;4950324;28;20047;-78
2023/08/27 09:56:25;;;;;;;3.28;1.77;;;20.30;64.70;;;;;;4965994;28;20025;-78
2023/08/27 09:58:54;;;;;;;5.68;2.05;;;20.00;65.70;;;;;;4952242;28;20081;-78
2023/08/27 10:01:32;;;;;;;3.35;1.30;;;20.00;65.60;;;;;;4948987;28;20054;-78
2023/08/27 10:04:03;;;;;;;4.68;1.65;;;20.40;63.00;;;;;;4944989;28;20058;-78
2023/08/27 10:06:34;;;;;;;3.00;1.23;;;20.60;61.70;;;;;;4950674;28;20076;-78
2023/08/27 10:09:00;;;;;;;4.70;1.50;;;21.30;61.40;;;;;;4956444;28;20090;-78
2023/08/27 10:11:26;;;;;;;4.30;1.75;;;21.60;59.80;;;;;;4972875;28;20031;-79
2023/08/27 10:13:52;;;;;;;3.72;1.23;;;21.90;59.90;;;;;;4946852;28;20101;-79
2023/08/27 10:16:19;;;;;;;3.58;1.30;;;22.10;58.70;;;;;;4948700;28;20023;-78
2023/08/27 10:18:46;;;;;;;4.22;1.30;;;22.60;57.10;;;;;;4981884;28;20059;-77
2023/08/27 10:21:11;;;;;;;3.55;1.40;;;22.70;57.70;;;;;;4959230;28;20027;-79
2023/08/27 10:23:39;;;;;;;5.07;1.52;;;22.60;56.40;;;;;;4956179;28;20042;-79
2023/08/27 10:26:05;;;;;;;3.05;1.58;;;22.60;56.30;;;;;;4948095;28;20026;-78
2023/08/27 10:28:33;;;;;;;1.70;1.10;;;22.00;57.10;;;;;;4947595;28;20036;-78
2023/08/27 10:30:59;;;;;;;4.10;1.33;;;22.50;57.70;;;;;;4948252;28;20031;-77
2023/08/27 10:33:25;;;;;;;3.42;1.58;;;22.80;57.10;;;;;;4944173;28;20173;-77
2023/08/27 10:35:52;;;;;;;5.47;1.70;;;22.50;57.00;;;;;;4945200;28;20497;-78
2023/08/27 10:38:20;;;;;;;3.78;1.90;;;22.10;57.90;;;;;;4949441;28;20055;-78
2023/08/27 10:40:46;;;;;;;3.47;1.90;;;22.40;58.90;;;;;;4943250;28;20016;-77
2023/08/27 10:43:20;;;;;;;4.05;1.90;;;21.80;57.40;;;;;;4945431;28;20039;-76
2023/08/27 10:45:48;;;;;;;4.65;2.80;;;21.20;57.70;;;;;;4937333;28;20034;-77
2023/08/27 10:48:20;;;;;;;5.78;2.75;;;20.70;60.10;;;;;;4946204;28;20420;-78
2023/08/27 10:50:58;;;;;;;5.85;3.00;;;21.00;60.40;;;;;;4993704;28;20023;-76
2023/08/27 10:53:24;;;;;;;5.75;3.30;;;20.60;62.20;;;;;;4956851;28;20043;-78
2023/08/27 10:55:52;;;;;;;5.32;3.05;;;20.60;64.60;;;;;;4974897;28;20071;-78
2023/08/27 10:58:22;;;;;;;4.82;3.20;;;20.60;63.10;;;;;;4979773;28;20114;-79
2023/08/27 11:01:13;;;;;;;6.10;3.45;;;20.60;63.20;;;;;;4976856;28;20058;-78
2023/08/27 11:04:01;;;;;;;6.43;3.63;;;20.10;64.20;;;;;;4959538;28;20365;-79
2023/08/27 11:06:36;;;;;;;8.35;4.30;;;19.80;65.20;;;;;;4960328;28;20023;-79
2023/08/27 11:09:10;;;;;;;7.40;4.43;;;19.60;65.40;;;;;;4948034;28;20032;-79
2023/08/27 11:11:40;;;;;;;8.88;4.68;;;19.90;65.40;;;;;;4944855;28;20118;-79
2023/08/27 11:14:08;;;;;;;7.88;4.70;;;20.40;65.20;;;;;;4949886;28;20555;-79
2023/08/27 11:17:04;;;;;;;8.50;4.80;;;20.20;65.30;;;;;;4946877;28;20548;-78
2023/08/27 11:19:35;;;;;;;10.20;5.50;;;19.80;66.50;;;;;;4954939;28;20567;-78
2023/08/27 11:22:17;;;;;;;8.10;4.50;;;20.00;67.20;;;;;;4939499;28;20493;-78
2023/08/27 11:24:48;;;;;;;8.70;4.45;;;20.10;66.80;;;;;;4957024;28;20043;-78
2023/08/27 11:27:15;;;;;;;6.70;3.33;;;20.10;67.50;;;;;;4953985;28;20054;-79
2023/08/27 11:29:43;;;;;;;4.22;1.85;;;20.60;66.00;;;;;;4966743;28;20504;-79
2023/08/27 11:32:11;;;;;;;3.15;1.70;;;21.10;59.50;;;;;;4966538;28;20039;-79
2023/08/27 11:34:38;;;;;;;4.40;1.75;;;21.30;58.40;;;;;;4950765;28;20461;-79
2023/08/27 11:37:06;;;;;;;2.97;1.42;;;21.40;57.40;;;;;;4949354;28;20055;-79
2023/08/27 11:39:33;;;;;;;3.30;1.42;;;21.60;58.10;;;;;;4953755;28;20047;-80
2023/08/27 11:41:59;;;;;;;4.28;1.30;;;22.30;56.90;;;;;;4938682;28;20047;-79
2023/08/27 11:44:25;;;;;;;6.25;1.73;;;22.50;55.00;;;;;;4946901;28;20518;-80
2023/08/27 11:46:51;;;;;;;3.10;1.50;;;22.60;53.50;;;;;;4941867;28;20478;-79
2023/08/27 11:49:31;;;;;;;2.75;1.25;;;22.30;55.90;;;;;;5013264;28;20029;-78
2023/08/27 11:51:58;;;;;;;3.03;1.15;;;22.30;55.00;;;;;;4941507;28;20043;-78
2023/08/27 11:54:30;;;;;;;3.97;1.33;;;22.00;54.10;;;;;;4959802;28;20049;-79
2023/08/27 11:56:56;;;;;;;2.80;1.73;;;22.10;53.70;;;;;;4979650;28;20130;-79
2023/08/27 11:59:25;;;;;;;4.72;1.30;;;21.60;54.50;;;;;;4972812;28;20027;-79
2023/08/27 12:01:51;;;;;;;2.72;1.40;;;21.80;55.60;;;;;;4966921;28;20070;-78
2023/08/27 12:04:17;;;;;;;2.90;1.45;;;22.40;54.80;;;;;;4959628;28;20083;-78
2023/08/27 12:06:54;;;;;;;2.67;1.20;;;22.60;52.30;;;;;;4964613;28;20019;-80
2023/08/27 12:09:24;;;;;;;5.38;1.70;;;22.70;52.80;;;;;;4963246;28;20035;-80
2023/08/27 12:11:50;;;;;;;8.57;2.10;;;22.90;52.40;;;;;;4964889;28;20058;-78
2023/08/27 12:14:23;;;;;;;2.25;1.30;;;22.60;52.80;;;;;;4946797;28;20082;-79
2023/08/27 12:16:48;;;;;;;4.28;1.60;;;22.50;54.90;;;;;;4945522;28;20028;-79
2023/08/27 12:19:19;;;;;;;2.75;1.20;;;22.00;54.10;;;;;;4973702;28;20393;-79
2023/08/27 12:21:47;;;;;;;2.63;1.20;;;22.10;54.70;;;;;;4969677;28;20039;-79
2023/08/27 12:24:40;;;;;;;2.10;1.15;;;22.10;54.30;;;;;;4974005;28;20478;-78
2023/08/27 12:27:10;;;;;;;3.38;1.00;;;22.40;51.80;;;;;;4973708;28;20051;-78
2023/08/27 12:29:40;;;;;;;1.90;1.13;;;22.30;53.40;;;;;;4957853;28;20054;-78
2023/08/27 12:32:12;;;;;;;2.92;1.00;;;22.00;53.80;;;;;;4961696;28;20050;-78
2023/08/27 12:34:39;;;;;;;2.13;1.20;;;21.90;52.90;;;;;;4946624;28;20038;-79
2023/08/27 12:37:05;;;;;;;2.53;1.20;;;21.70;54.10;;;;;;4969377;28;20050;-79
2023/08/27 12:39:32;;;;;;;2.75;1.10;;;21.20;54.90;;;;;;4951720;28;20110;-78
2023/08/27 12:42:00;;;;;;;1.70;0.90;;;20.90;54.20;;;;;;4947228;28;20078;-77
2023/08/27 12:44:26;;;;;;;1.48;1.00;;;20.60;55.80;;;;;;4955080;28;20031;-78